Time;durP1;ratioP1;P1;durP2;ratioP2;P2;SDS_P1;SDS_P2;PMS_P1;PMS_P2;Temp;Humidity;BMP_temperature;BMP_pressure;BME280_temperature;BME280_humidity;BME280_pressure;Samples;Min_cycle;Max_cycle;Signal;HPM_P1;HPM_P2
2023/03/06 04:02:43;;;;;;;1.13;0.90;;;12.10;48.40;;;;;;4636117;26;45994;-62
2023/03/06 04:05:10;;;;;;;1.10;0.85;;;12.10;48.40;;;;;;4942455;28;45462;-56
2023/03/06 04:07:36;;;;;;;1.40;1.00;;;12.10;48.40;;;;;;4956068;28;45498;-58
2023/03/06 04:10:01;;;;;;;1.80;1.20;;;12.10;48.40;;;;;;4939175;28;45470;-57
2023/03/06 04:12:27;;;;;;;1.33;1.00;;;12.10;48.30;;;;;;4960182;28;45405;-57
2023/03/06 04:14:52;;;;;;;0.85;0.80;;;12.10;48.30;;;;;;4963184;28;48051;-58
2023/03/06 04:17:18;;;;;;;1.45;1.00;;;12.10;48.40;;;;;;4955208;28;45269;-60
2023/03/06 04:19:43;;;;;;;1.27;1.00;;;12.10;48.40;;;;;;4938704;28;45132;-55
2023/03/06 04:22:09;;;;;;;1.00;0.90;;;12.10;48.40;;;;;;4928181;28;47022;-56
2023/03/06 04:24:34;;;;;;;1.05;0.80;;;12.10;48.40;;;;;;4964589;28;44956;-56
2023/03/06 04:27:00;;;;;;;1.67;1.10;;;12.10;48.40;;;;;;4958837;28;45593;-55
2023/03/06 04:29:25;;;;;;;1.40;1.00;;;12.10;48.40;;;;;;4938490;28;46260;-59
2023/03/06 04:31:51;;;;;;;0.98;0.88;;;12.10;48.50;;;;;;4936023;28;46335;-56
2023/03/06 04:34:16;;;;;;;1.05;0.95;;;12.10;48.50;;;;;;4963299;28;45474;-56
2023/03/06 04:36:44;;;;;;;1.20;0.80;;;12.10;48.40;;;;;;4937763;28;45443;-60
2023/03/06 04:39:13;;;;;;;1.63;1.10;;;12.10;48.40;;;;;;4944018;28;45362;-58
2023/03/06 04:41:39;;;;;;;1.23;0.88;;;12.10;48.40;;;;;;4953877;28;45623;-57
2023/03/06 04:44:05;;;;;;;1.35;1.08;;;12.10;48.40;;;;;;4933020;28;44967;-59
2023/03/06 04:46:31;;;;;;;1.02;0.85;;;12.10;48.40;;;;;;4940142;28;45274;-57
2023/03/06 04:48:57;;;;;;;1.02;0.90;;;12.10;48.40;;;;;;4940058;28;45492;-56
2023/03/06 04:51:22;;;;;;;1.40;1.00;;;12.10;47.90;;;;;;4959780;28;46470;-59
2023/03/06 04:53:48;;;;;;;1.70;1.30;;;12.10;48.40;;;;;;4928350;28;45309;-58
2023/03/06 04:56:14;;;;;;;0.98;0.80;;;12.10;48.40;;;;;;4943603;28;45624;-58
2023/03/06 04:58:39;;;;;;;1.10;0.80;;;12.10;48.40;;;;;;4929947;28;45266;-58
2023/03/06 05:01:05;;;;;;;1.02;0.80;;;12.10;48.40;;;;;;4955758;28;45716;-59
2023/03/06 05:03:30;;;;;;;1.23;1.10;;;12.10;48.40;;;;;;4943423;28;45448;-59
2023/03/06 05:05:56;;;;;;;1.05;0.90;;;12.10;48.40;;;;;;4929664;28;45559;-56
2023/03/06 05:08:22;;;;;;;1.20;0.95;;;12.10;48.40;;;;;;4943365;28;46180;-58
2023/03/06 05:10:56;;;;;;;1.33;1.05;;;12.10;48.40;;;;;;4961189;28;45470;-60
2023/03/06 05:13:22;;;;;;;1.08;0.80;;;12.10;48.40;;;;;;4926942;28;44725;-56
2023/03/06 05:15:47;;;;;;;0.80;0.73;;;12.10;48.30;;;;;;4941874;28;45603;-56
2023/03/06 05:18:13;;;;;;;1.25;0.90;;;12.10;48.30;;;;;;4958045;28;45363;-59
2023/03/06 05:20:38;;;;;;;1.20;0.80;;;12.10;48.40;;;;;;4942969;28;46391;-61
2023/03/06 05:23:04;;;;;;;1.02;0.82;;;12.10;48.40;;;;;;4962494;28;44725;-61
2023/03/06 05:25:29;;;;;;;1.08;0.88;;;12.10;48.40;;;;;;4958228;28;45063;-60
2023/03/06 05:27:55;;;;;;;1.27;1.00;;;12.00;48.40;;;;;;4925334;28;46588;-59
2023/03/06 05:30:22;;;;;;;1.50;1.10;;;12.00;48.40;;;;;;4924379;28;46178;-58
2023/03/06 05:32:47;;;;;;;1.02;0.93;;;12.00;48.40;;;;;;4960195;28;45158;-58
2023/03/06 05:35:20;;;;;;;1.05;0.85;;;12.00;48.40;;;;;;4956524;28;46315;-58
2023/03/06 05:37:46;;;;;;;1.38;1.02;;;12.10;48.40;;;;;;4933223;28;45312;-58
2023/03/06 05:40:12;;;;;;;1.13;1.00;;;12.10;49.00;;;;;;4956601;28;46543;-56
2023/03/06 05:42:38;;;;;;;1.58;1.08;;;12.00;48.40;;;;;;4952057;28;46049;-59
2023/03/06 05:45:04;;;;;;;1.05;0.90;;;12.00;48.40;;;;;;4959011;28;45727;-58
2023/03/06 05:47:30;;;;;;;1.77;1.05;;;12.00;48.40;;;;;;4938583;28;45238;-56
2023/03/06 05:49:56;;;;;;;1.88;0.90;;;12.00;48.50;;;;;;4960653;28;46655;-61
2023/03/06 05:52:21;;;;;;;1.20;0.75;;;12.00;48.40;;;;;;4924353;28;46442;-59
2023/03/06 05:54:51;;;;;;;1.58;1.00;;;12.00;48.40;;;;;;4938880;28;46356;-58
2023/03/06 05:57:18;;;;;;;1.25;0.93;;;12.00;48.40;;;;;;4944328;28;45185;-59
2023/03/06 05:59:43;;;;;;;1.10;0.80;;;12.00;48.40;;;;;;4955917;28;45523;-56
2023/03/06 06:02:09;;;;;;;0.90;0.70;;;12.00;48.40;;;;;;4942221;28;45627;-59
2023/03/06 06:04:34;;;;;;;1.33;0.90;;;12.00;48.40;;;;;;4956652;28;45280;-61
2023/03/06 06:07:00;;;;;;;1.05;0.80;;;12.00;48.40;;;;;;4929331;28;45686;-59
2023/03/06 06:09:26;;;;;;;1.20;0.95;;;12.00;48.40;;;;;;4944316;28;46136;-58
2023/03/06 06:11:52;;;;;;;2.25;1.00;;;12.00;48.40;;;;;;4945178;28;45531;-57
2023/03/06 06:14:18;;;;;;;0.80;0.80;;;12.00;48.40;;;;;;4950613;28;45336;-58
2023/03/06 06:16:44;;;;;;;1.08;0.80;;;12.00;48.50;;;;;;4960087;28;45063;-58
2023/03/06 06:19:09;;;;;;;1.63;1.02;;;12.00;48.40;;;;;;4964118;28;46411;-59
2023/03/06 06:21:35;;;;;;;1.33;1.13;;;12.00;48.40;;;;;;4946164;28;45673;-56
2023/03/06 06:24:00;;;;;;;1.20;0.98;;;12.00;48.40;;;;;;4960894;28;44966;-57
2023/03/06 06:26:26;;;;;;;1.77;1.10;;;12.00;48.40;;;;;;4959909;28;45551;-57
2023/03/06 06:28:51;;;;;;;1.20;0.93;;;12.00;48.40;;;;;;4958034;28;46684;-54
2023/03/06 06:31:17;;;;;;;1.17;0.95;;;12.00;48.40;;;;;;4957768;28;45346;-60
2023/03/06 06:33:42;;;;;;;1.63;1.10;;;12.00;48.40;;;;;;4945454;28;45269;-60
2023/03/06 06:36:18;;;;;;;1.50;0.93;;;12.00;48.40;;;;;;4960611;28;45323;-56
2023/03/06 06:38:44;;;;;;;1.55;1.10;;;12.00;48.40;;;;;;4948177;28;45641;-58
2023/03/06 06:41:09;;;;;;;1.13;0.90;;;12.00;48.40;;;;;;4944307;28;45940;-58
2023/03/06 06:43:35;;;;;;;1.63;1.00;;;12.00;48.40;;;;;;4960636;28;45194;-56
2023/03/06 06:46:01;;;;;;;1.65;0.95;;;12.00;48.40;;;;;;4941801;28;45064;-59
2023/03/06 06:48:26;;;;;;;2.63;1.20;;;12.00;48.50;;;;;;4944562;28;46433;-60
2023/03/06 06:50:56;;;;;;;1.42;0.98;;;12.00;48.50;;;;;;4957824;28;45250;-57
2023/03/06 06:53:22;;;;;;;1.08;0.75;;;12.00;48.50;;;;;;4948194;28;45363;-58
2023/03/06 06:55:47;;;;;;;1.75;0.80;;;12.00;48.50;;;;;;4960954;28;44908;-59
2023/03/06 06:58:13;;;;;;;1.48;0.98;;;12.00;48.50;;;;;;4956973;28;46858;-56
2023/03/06 07:00:38;;;;;;;1.35;0.93;;;12.00;48.50;;;;;;4963805;28;45434;-57
2023/03/06 07:03:04;;;;;;;1.40;1.00;;;12.00;48.50;;;;;;4961131;28;45012;-55
2023/03/06 07:05:29;;;;;;;1.30;0.93;;;12.00;48.50;;;;;;4945261;28;45282;-54
2023/03/06 07:07:55;;;;;;;1.17;0.88;;;11.90;48.40;;;;;;4958828;28;46424;-57
2023/03/06 07:10:21;;;;;;;1.35;0.90;;;12.00;48.60;;;;;;4935312;28;45762;-58
2023/03/06 07:12:46;;;;;;;1.37;1.20;;;11.90;48.50;;;;;;4968472;28;45095;-57
2023/03/06 07:15:13;;;;;;;1.30;1.20;;;12.10;48.30;;;;;;4946084;28;45199;-54
2023/03/06 07:17:39;;;;;;;1.40;1.30;;;12.20;48.10;;;;;;4944613;28;45778;-53
2023/03/06 07:20:05;;;;;;;1.40;1.17;;;12.30;48.00;;;;;;4962525;28;45466;-58
2023/03/06 07:22:31;;;;;;;1.30;1.20;;;12.40;47.90;;;;;;4932362;28;45144;-59
2023/03/06 07:24:57;;;;;;;1.55;1.20;;;12.50;47.80;;;;;;4947134;28;45330;-58
2023/03/06 07:27:24;;;;;;;1.60;1.37;;;12.50;47.60;;;;;;4944413;28;47768;-59
2023/03/06 07:29:50;;;;;;;1.48;1.23;;;12.60;47.60;;;;;;4961455;28;45190;-61
2023/03/06 07:32:16;;;;;;;1.73;1.48;;;12.60;47.40;;;;;;4962618;28;45253;-58
2023/03/06 07:34:43;;;;;;;1.40;1.20;;;12.60;47.30;;;;;;4968068;28;45209;-58
2023/03/06 07:37:09;;;;;;;1.65;1.20;;;12.70;47.20;;;;;;4938983;28;45482;-57
2023/03/06 07:39:34;;;;;;;1.57;1.37;;;12.70;47.10;;;;;;4963540;28;45309;-57
2023/03/06 07:42:00;;;;;;;1.30;1.20;;;12.70;47.10;;;;;;4960312;28;45547;-56
2023/03/06 07:44:26;;;;;;;1.40;1.23;;;12.70;47.00;;;;;;4961944;28;46170;-59
2023/03/06 07:46:51;;;;;;;1.40;1.30;;;12.80;47.00;;;;;;4943047;28;45461;-60
2023/03/06 07:49:17;;;;;;;1.48;1.15;;;12.80;46.90;;;;;;4946560;28;44829;-58
2023/03/06 07:51:42;;;;;;;1.23;1.10;;;12.80;46.80;;;;;;4949643;28;45273;-59
2023/03/06 07:54:08;;;;;;;1.10;1.00;;;12.80;46.80;;;;;;4936771;28;45596;-55
2023/03/06 07:56:33;;;;;;;1.55;1.30;;;12.80;46.60;;;;;;4939249;28;46695;-58
2023/03/06 07:58:59;;;;;;;2.10;1.60;;;12.80;46.60;;;;;;4961203;28;45618;-57
2023/03/06 08:01:25;;;;;;;1.27;1.10;;;12.80;46.50;;;;;;4958924;28;45514;-57
2023/03/06 08:03:50;;;;;;;1.40;1.13;;;12.90;46.60;;;;;;4943486;28;44886;-55
2023/03/06 08:06:18;;;;;;;1.40;1.20;;;12.90;46.50;;;;;;4931690;28;45843;-58
2023/03/06 08:08:44;;;;;;;1.40;1.20;;;12.90;46.50;;;;;;4945412;28;45472;-57
2023/03/06 08:11:10;;;;;;;1.10;1.00;;;12.90;46.50;;;;;;4960685;28;45239;-59
2023/03/06 08:13:36;;;;;;;1.10;1.00;;;12.90;46.50;;;;;;4935320;28;45045;-56
2023/03/06 08:16:02;;;;;;;1.30;1.10;;;12.90;46.40;;;;;;4965628;28;45781;-57
2023/03/06 08:18:27;;;;;;;1.38;1.23;;;12.90;46.30;;;;;;4946795;28;45324;-53
2023/03/06 08:21:10;;;;;;;1.40;1.30;;;12.90;46.30;;;;;;4962754;28;45281;-60
2023/03/06 08:23:35;;;;;;;1.35;1.10;;;12.90;46.30;;;;;;4945146;28;45273;-54
2023/03/06 08:26:03;;;;;;;1.30;1.20;;;12.90;46.30;;;;;;4945034;28;45360;-55
2023/03/06 08:28:28;;;;;;;2.47;1.20;;;13.00;46.30;;;;;;4953706;28;45551;-60
2023/03/06 08:30:55;;;;;;;1.80;1.60;;;12.90;46.20;;;;;;4933845;28;45135;-60
2023/03/06 08:33:20;;;;;;;1.40;1.15;;;13.00;46.20;;;;;;4963001;28;46397;-57
2023/03/06 08:35:46;;;;;;;1.05;0.95;;;13.00;46.10;;;;;;4950206;28;46438;-57
2023/03/06 08:38:12;;;;;;;1.80;1.17;;;13.00;46.10;;;;;;4945707;28;44983;-58
2023/03/06 08:40:37;;;;;;;1.23;1.10;;;13.00;46.10;;;;;;4943077;28;45461;-55
2023/03/06 08:43:03;;;;;;;1.40;1.20;;;13.00;46.10;;;;;;4964387;28;45540;-58
2023/03/06 08:45:28;;;;;;;1.85;1.23;;;13.00;46.10;;;;;;4968592;28;46407;-55
2023/03/06 08:47:54;;;;;;;1.07;0.97;;;13.00;46.00;;;;;;4955760;28;45533;-55
2023/03/06 08:50:19;;;;;;;1.63;1.20;;;13.00;46.10;;;;;;4932298;28;45417;-55
2023/03/06 08:52:45;;;;;;;1.35;1.20;;;13.00;46.00;;;;;;4958184;28;45383;-56
2023/03/06 08:55:10;;;;;;;1.38;1.20;;;13.00;45.90;;;;;;4923629;28;46704;-58
2023/03/06 08:57:36;;;;;;;1.20;1.10;;;13.00;45.90;;;;;;4923327;28;45597;-59
2023/03/06 09:00:07;;;;;;;1.40;1.10;;;13.00;45.90;;;;;;4939028;28;44984;-57
2023/03/06 09:02:33;;;;;;;1.80;1.23;;;13.00;45.90;;;;;;4929009;28;45159;-57
2023/03/06 09:05:00;;;;;;;1.33;1.23;;;13.00;45.90;;;;;;4944115;28;45683;-58
2023/03/06 09:07:25;;;;;;;1.10;1.00;;;13.00;45.80;;;;;;4940075;28;45563;-55
2023/03/06 09:09:55;;;;;;;1.23;1.10;;;13.10;45.90;;;;;;4940634;28;46716;-55
2023/03/06 09:12:20;;;;;;;1.40;1.30;;;13.10;45.90;;;;;;4942652;28;45898;-55
2023/03/06 09:14:46;;;;;;;1.27;1.10;;;13.00;45.80;;;;;;4961105;28;46327;-59
2023/03/06 09:17:11;;;;;;;1.20;1.10;;;13.10;45.90;;;;;;4955956;28;45412;-59
2023/03/06 09:19:37;;;;;;;1.50;1.40;;;13.10;45.90;;;;;;4941134;28;45404;-57
2023/03/06 09:22:02;;;;;;;1.50;1.20;;;13.10;45.80;;;;;;4938912;28;45651;-54
2023/03/06 09:24:28;;;;;;;1.30;1.20;;;13.10;45.90;;;;;;4957097;28;45778;-57
2023/03/06 09:26:54;;;;;;;1.60;1.40;;;13.10;45.80;;;;;;4953872;28;44955;-57
2023/03/06 09:29:20;;;;;;;1.20;1.10;;;13.00;45.80;;;;;;4956507;28;45548;-57
2023/03/06 09:31:45;;;;;;;1.58;1.33;;;13.00;45.90;;;;;;4956084;28;45892;-58
2023/03/06 09:34:11;;;;;;;1.27;1.17;;;13.10;45.90;;;;;;4943153;28;45488;-58
2023/03/06 09:36:36;;;;;;;1.40;1.17;;;13.10;45.80;;;;;;4928053;28;44894;-57
2023/03/06 09:39:02;;;;;;;1.27;1.10;;;13.10;45.80;;;;;;4937869;28;45617;-59
2023/03/06 09:41:34;;;;;;;1.40;1.23;;;13.10;45.70;;;;;;4956586;28;45253;-60
2023/03/06 09:44:19;;;;;;;1.35;1.15;;;13.10;45.70;;;;;;4919518;28;45265;-59
2023/03/06 09:47:12;;;;;;;1.67;1.38;;;13.10;45.60;;;;;;4946415;28;45593;-58
2023/03/06 09:50:03;;;;;;;1.58;1.23;;;13.10;45.60;;;;;;4963410;28;45439;-59
2023/03/06 09:52:38;;;;;;;1.23;1.10;;;13.20;45.60;;;;;;4926297;28;45085;-58
2023/03/06 09:55:03;;;;;;;1.40;1.30;;;13.10;45.50;;;;;;4944819;28;45471;-59
2023/03/06 09:57:35;;;;;;;1.40;1.30;;;13.10;45.50;;;;;;4962364;28;45521;-60
2023/03/06 10:00:11;;;;;;;1.30;1.20;;;13.10;45.50;;;;;;4963725;28;45354;-58
2023/03/06 10:02:41;;;;;;;1.33;1.17;;;13.20;45.60;;;;;;4942281;28;45437;-59
2023/03/06 10:05:24;;;;;;;1.23;1.13;;;13.10;45.50;;;;;;4946717;28;45153;-57
2023/03/06 10:07:59;;;;;;;1.95;1.42;;;13.20;45.60;;;;;;4930326;28;45558;-58
2023/03/06 10:10:27;;;;;;;1.40;1.30;;;13.20;45.50;;;;;;4945128;28;45483;-59
2023/03/06 10:13:24;;;;;;;1.35;1.20;;;13.20;45.50;;;;;;4943180;28;45655;-60
2023/03/06 10:15:49;;;;;;;1.50;1.30;;;13.20;45.50;;;;;;4930707;28;46520;-58
2023/03/06 10:18:15;;;;;;;1.30;1.20;;;13.10;45.50;;;;;;4928006;28;45364;-58
2023/03/06 10:20:43;;;;;;;1.20;1.10;;;13.20;45.50;;;;;;4939171;28;46213;-57
2023/03/06 10:23:39;;;;;;;2.10;1.30;;;13.10;45.50;;;;;;4958072;28;45580;-59
2023/03/06 10:26:17;;;;;;;1.60;1.10;;;13.20;45.50;;;;;;4927430;28;46399;-58
2023/03/06 10:28:58;;;;;;;1.27;1.10;;;13.20;45.50;;;;;;4948486;28;44684;-59
2023/03/06 10:31:25;;;;;;;1.20;1.10;;;13.20;45.40;;;;;;4945911;28;45740;-59
2023/03/06 10:33:57;;;;;;;1.67;1.48;;;13.20;45.50;;;;;;4948463;28;45647;-55
2023/03/06 10:36:27;;;;;;;1.70;1.35;;;13.20;45.40;;;;;;4926993;28;45624;-58
2023/03/06 10:38:56;;;;;;;1.35;1.23;;;13.20;45.50;;;;;;4942958;28;45562;-59
2023/03/06 10:41:29;;;;;;;1.70;1.38;;;13.20;45.50;;;;;;4941183;28;45301;-58
2023/03/06 10:44:04;;;;;;;1.35;1.25;;;13.20;45.50;;;;;;4948626;28;45069;-58
2023/03/06 10:46:33;;;;;;;1.40;1.30;;;13.20;45.40;;;;;;4959603;28;45410;-59
2023/03/06 10:49:20;;;;;;;1.35;1.17;;;13.20;45.40;;;;;;4944441;28;45479;-56
2023/03/06 10:52:14;;;;;;;1.40;1.30;;;13.20;45.40;;;;;;4949027;28;45634;-56
2023/03/06 10:54:42;;;;;;;1.55;1.35;;;13.20;45.40;;;;;;4945454;28;45425;-56
2023/03/06 10:57:29;;;;;;;1.50;1.10;;;13.20;45.40;;;;;;4916068;28;46270;-59
2023/03/06 10:59:58;;;;;;;1.50;1.40;;;13.20;45.40;;;;;;4960942;28;45226;-59
2023/03/06 11:02:31;;;;;;;1.52;1.17;;;13.20;45.30;;;;;;4940073;28;45354;-59
2023/03/06 11:04:58;;;;;;;1.48;1.20;;;13.20;45.30;;;;;;4941699;28;46100;-60
2023/03/06 11:07:31;;;;;;;1.40;1.10;;;13.20;45.30;;;;;;4933200;28;46444;-56
2023/03/06 11:09:56;;;;;;;1.20;1.08;;;13.20;45.30;;;;;;4958032;28;45161;-57
2023/03/06 11:12:35;;;;;;;1.30;1.20;;;13.20;45.30;;;;;;4960524;28;45373;-55
2023/03/06 11:15:13;;;;;;;1.80;1.45;;;13.20;45.30;;;;;;4933466;28;45287;-55
2023/03/06 11:18:20;;;;;;;1.50;1.10;;;13.20;45.30;;;;;;4957774;28;46116;-56
2023/03/06 11:20:48;;;;;;;1.30;1.20;;;13.20;45.30;;;;;;4927338;28;45245;-58
2023/03/06 11:23:40;;;;;;;1.20;1.10;;;13.20;45.30;;;;;;4958641;28;44879;-57
2023/03/06 11:26:05;;;;;;;1.30;1.20;;;13.20;45.20;;;;;;4946181;28;45259;-54
2023/03/06 11:28:41;;;;;;;1.50;1.40;;;13.20;45.30;;;;;;4959704;28;45415;-58
2023/03/06 11:31:17;;;;;;;1.50;1.30;;;13.20;45.30;;;;;;4931017;28;45586;-58
2023/03/06 11:34:06;;;;;;;1.38;1.27;;;13.20;45.30;;;;;;4914753;28;45414;-59
2023/03/06 11:36:37;;;;;;;1.42;1.20;;;13.20;45.30;;;;;;4931195;28;45236;-61
2023/03/06 11:39:11;;;;;;;1.70;1.40;;;13.20;45.20;;;;;;4929313;28;46382;-57
2023/03/06 11:41:44;;;;;;;1.55;1.23;;;13.20;45.20;;;;;;4932408;28;45170;-52
2023/03/06 11:44:15;;;;;;;1.37;1.27;;;13.20;45.20;;;;;;4946204;28;45538;-56
2023/03/06 11:46:43;;;;;;;1.57;1.30;;;13.20;45.20;;;;;;4929065;28;46552;-58
2023/03/06 11:49:31;;;;;;;1.40;1.20;;;13.30;45.30;;;;;;4943180;28;46212;-54
2023/03/06 11:52:04;;;;;;;1.90;1.40;;;13.20;45.20;;;;;;4929937;28;45204;-55
2023/03/06 11:54:30;;;;;;;1.65;1.25;;;13.20;45.20;;;;;;4934688;28;45017;-55
2023/03/06 11:56:58;;;;;;;1.43;1.33;;;13.30;45.30;;;;;;4948049;28;45293;-53
2023/03/06 11:59:59;;;;;;;1.58;1.23;;;13.30;45.20;;;;;;4928621;28;46193;-55
2023/03/06 12:02:42;;;;;;;1.40;1.30;;;13.30;45.20;;;;;;4957540;28;45271;-55
2023/03/06 12:05:11;;;;;;;1.33;1.23;;;13.30;45.20;;;;;;4943654;28;45420;-55
2023/03/06 12:07:53;;;;;;;1.40;1.25;;;13.30;45.20;;;;;;4948053;28;45338;-57
2023/03/06 12:10:26;;;;;;;1.40;1.20;;;13.30;45.20;;;;;;4940500;28;45326;-58
2023/03/06 12:13:07;;;;;;;1.27;1.10;;;13.30;45.20;;;;;;4951739;28;45157;-55
2023/03/06 12:15:32;;;;;;;1.80;1.30;;;13.30;45.20;;;;;;4964597;28;44991;-53
2023/03/06 12:18:16;;;;;;;1.30;1.20;;;13.30;45.20;;;;;;4959946;28;45168;-59
2023/03/06 12:20:57;;;;;;;1.63;1.27;;;13.30;45.20;;;;;;4960373;28;45343;-56
2023/03/06 12:23:53;;;;;;;1.20;1.10;;;13.30;45.20;;;;;;4961927;28;45499;-57
2023/03/06 12:26:49;;;;;;;1.15;1.05;;;13.30;45.20;;;;;;4964007;28;45253;-59
2023/03/06 12:29:54;;;;;;;1.63;1.27;;;13.30;45.10;;;;;;4933030;28;45399;-53
2023/03/06 12:33:01;;;;;;;1.10;1.00;;;13.30;45.10;;;;;;4940762;28;46438;-58
2023/03/06 12:35:55;;;;;;;1.35;1.25;;;13.30;45.10;;;;;;4943610;28;45344;-59
2023/03/06 12:38:32;;;;;;;1.20;1.10;;;13.30;45.20;;;;;;4945411;28;45184;-58
2023/03/06 12:41:14;;;;;;;1.40;1.10;;;13.30;45.20;;;;;;4930570;28;45109;-57
2023/03/06 12:43:42;;;;;;;1.70;1.27;;;13.30;45.20;;;;;;4927845;28;45739;-56
2023/03/06 12:46:15;;;;;;;1.27;1.17;;;13.30;45.20;;;;;;4946891;28;45200;-64
2023/03/06 12:48:42;;;;;;;1.20;1.00;;;13.30;45.10;;;;;;4935581;28;49311;-59
2023/03/06 12:51:09;;;;;;;0.93;0.90;;;13.30;45.10;;;;;;4944662;28;45473;-56
2023/03/06 12:53:35;;;;;;;1.30;1.00;;;13.30;45.10;;;;;;4944333;28;45206;-56
2023/03/06 12:56:01;;;;;;;1.20;1.10;;;13.30;45.10;;;;;;4912761;28;44614;-60
2023/03/06 12:58:29;;;;;;;1.27;1.10;;;13.30;45.10;;;;;;4941968;28;44948;-58
2023/03/06 13:01:28;;;;;;;1.38;1.10;;;13.30;45.10;;;;;;4941258;28;44787;-59
2023/03/06 13:04:12;;;;;;;1.50;1.33;;;13.30;45.10;;;;;;4949033;28;46255;-57
2023/03/06 13:06:56;;;;;;;1.52;1.00;;;13.30;45.10;;;;;;4931113;28;45356;-57
2023/03/06 13:09:27;;;;;;;1.50;1.20;;;13.30;45.10;;;;;;4963382;28;44974;-57
2023/03/06 13:12:07;;;;;;;1.20;1.10;;;13.30;45.10;;;;;;4960443;28;45585;-57
2023/03/06 13:14:32;;;;;;;1.33;1.17;;;13.30;45.10;;;;;;4931784;28;45286;-56
2023/03/06 13:17:23;;;;;;;1.30;1.20;;;13.30;45.10;;;;;;4966802;28;44892;-57
2023/03/06 13:20:08;;;;;;;1.40;1.20;;;13.30;45.00;;;;;;4947485;28;45442;-59
2023/03/06 13:22:34;;;;;;;1.27;1.10;;;13.30;45.00;;;;;;4951411;28;45267;-56
2023/03/06 13:25:18;;;;;;;1.17;1.08;;;13.30;45.00;;;;;;4949708;28;45285;-57
2023/03/06 13:27:52;;;;;;;1.13;1.02;;;13.30;45.00;;;;;;4970125;28;45249;-58
2023/03/06 13:30:27;;;;;;;1.30;1.20;;;13.30;45.00;;;;;;4964460;28;45230;-55
2023/03/06 13:32:53;;;;;;;1.45;1.10;;;13.30;45.00;;;;;;4965857;28;46075;-53
2023/03/06 13:35:30;;;;;;;1.35;1.17;;;13.30;45.00;;;;;;4945747;28;45412;-55
2023/03/06 13:37:57;;;;;;;1.35;1.20;;;13.30;45.00;;;;;;4959762;28;45268;-57
2023/03/06 13:40:31;;;;;;;1.10;1.00;;;13.30;45.00;;;;;;4946039;28;45369;-56
2023/03/06 13:43:06;;;;;;;1.23;1.02;;;13.30;45.00;;;;;;4935743;28;44778;-57
2023/03/06 13:45:38;;;;;;;1.10;1.00;;;13.40;45.00;;;;;;4968147;28;46811;-56
2023/03/06 13:48:04;;;;;;;1.10;1.00;;;13.40;45.00;;;;;;4935758;28;44731;-54
2023/03/06 13:50:36;;;;;;;1.30;1.20;;;13.40;45.00;;;;;;4932310;28;44947;-56
2023/03/06 13:53:04;;;;;;;1.30;1.20;;;13.30;45.00;;;;;;4932633;28;45286;-55
2023/03/06 13:55:36;;;;;;;1.20;1.10;;;13.30;45.00;;;;;;4963223;28;45623;-58
2023/03/06 13:58:08;;;;;;;1.05;0.98;;;13.30;45.00;;;;;;4930658;28;46138;-55
2023/03/06 14:01:09;;;;;;;1.33;1.17;;;13.30;45.00;;;;;;4966085;28;45325;-57
2023/03/06 14:03:46;;;;;;;1.33;1.10;;;13.30;45.00;;;;;;4895281;28;45219;-55
2023/03/06 14:06:33;;;;;;;1.33;1.23;;;13.30;45.00;;;;;;4956838;28;45691;-57
2023/03/06 14:09:19;;;;;;;1.50;1.10;;;13.30;45.00;;;;;;4964553;28;44878;-57
2023/03/06 14:11:47;;;;;;;1.30;1.20;;;13.30;45.00;;;;;;4937580;28;45541;-57
2023/03/06 14:14:13;;;;;;;1.20;1.10;;;13.30;45.00;;;;;;4933377;28;45433;-58
2023/03/06 14:16:39;;;;;;;1.20;1.10;;;13.30;45.00;;;;;;4919278;28;46480;-56
2023/03/06 14:19:05;;;;;;;1.33;1.20;;;13.30;45.00;;;;;;4963652;28;45261;-58
2023/03/06 14:21:57;;;;;;;1.40;1.20;;;13.40;45.60;;;;;;4948653;28;45142;-55
2023/03/06 14:24:35;;;;;;;1.30;1.15;;;13.30;44.90;;;;;;4960990;28;45311;-58
2023/03/06 14:27:01;;;;;;;1.20;1.10;;;13.40;45.00;;;;;;4927571;28;45586;-60
2023/03/06 14:29:27;;;;;;;1.30;1.20;;;13.30;44.90;;;;;;4948753;28;48834;-58
2023/03/06 14:31:54;;;;;;;1.05;0.90;;;13.40;45.00;;;;;;4931471;28;44756;-59
2023/03/06 14:34:29;;;;;;;1.30;1.20;;;13.30;45.00;;;;;;4917459;28;46162;-57
2023/03/06 14:37:06;;;;;;;1.35;1.20;;;13.40;45.00;;;;;;4938193;28;45295;-54
2023/03/06 14:39:34;;;;;;;1.50;1.25;;;13.40;45.00;;;;;;4930725;28;45173;-58
2023/03/06 14:42:19;;;;;;;1.10;1.00;;;13.40;45.60;;;;;;4934839;28;45213;-57
2023/03/06 14:44:46;;;;;;;1.23;1.08;;;13.40;45.00;;;;;;4948195;28;45318;-57
2023/03/06 14:47:20;;;;;;;1.20;1.10;;;13.40;45.00;;;;;;4947171;28;45816;-55
2023/03/06 14:49:45;;;;;;;1.37;1.27;;;13.40;44.90;;;;;;4947278;28;48404;-55
2023/03/06 14:52:18;;;;;;;1.30;1.13;;;13.30;44.90;;;;;;4938580;28;44950;-57
2023/03/06 14:54:43;;;;;;;1.25;1.00;;;13.40;45.00;;;;;;4946705;28;44725;-57
2023/03/06 14:57:13;;;;;;;1.20;1.10;;;13.30;44.90;;;;;;4941632;28;46185;-59
2023/03/06 14:59:53;;;;;;;1.20;1.10;;;13.40;45.00;;;;;;4950170;28;44724;-57
2023/03/06 15:02:20;;;;;;;1.67;1.30;;;13.40;45.00;;;;;;4931960;28;45275;-54
2023/03/06 15:04:48;;;;;;;1.30;1.20;;;13.40;45.00;;;;;;4964516;28;45598;-56
2023/03/06 15:07:18;;;;;;;1.30;1.00;;;13.40;44.90;;;;;;4927421;28;45257;-56
2023/03/06 15:09:49;;;;;;;1.10;1.00;;;13.40;44.90;;;;;;4962422;28;45288;-55
2023/03/06 15:12:21;;;;;;;1.10;1.00;;;13.40;44.90;;;;;;4946227;28;45091;-57
2023/03/06 15:14:59;;;;;;;1.33;1.17;;;13.40;44.90;;;;;;4958196;28;45960;-55
2023/03/06 15:17:37;;;;;;;1.20;1.10;;;13.40;44.90;;;;;;4963732;28;45655;-55
2023/03/06 15:20:05;;;;;;;1.25;1.10;;;13.40;44.90;;;;;;4918899;28;45370;-58
2023/03/06 15:22:39;;;;;;;1.50;1.20;;;13.40;44.90;;;;;;4964053;28;45320;-59
2023/03/06 15:25:17;;;;;;;1.37;1.23;;;13.40;45.00;;;;;;4948070;28;45348;-56
2023/03/06 15:27:47;;;;;;;0.80;0.80;;;13.40;44.90;;;;;;4955762;28;45582;-57
2023/03/06 15:30:35;;;;;;;1.10;1.00;;;13.40;44.90;;;;;;4938952;28;45254;-56
2023/03/06 15:33:08;;;;;;;1.33;1.20;;;13.30;44.90;;;;;;4939171;28;45557;-56
2023/03/06 15:35:34;;;;;;;1.10;1.00;;;13.30;44.90;;;;;;4952732;28;45488;-54
2023/03/06 15:38:00;;;;;;;0.88;0.82;;;13.30;44.90;;;;;;4937482;28;45446;-55
2023/03/06 15:40:28;;;;;;;1.23;1.13;;;13.30;44.90;;;;;;4936864;28;45706;-63
2023/03/06 15:42:54;;;;;;;1.00;0.90;;;13.30;44.90;;;;;;4971560;28;44939;-56
2023/03/06 15:45:21;;;;;;;1.43;1.10;;;13.40;45.00;;;;;;4943624;28;46043;-61
2023/03/06 15:47:47;;;;;;;1.10;1.00;;;13.40;44.90;;;;;;4946636;28;45582;-57
2023/03/06 15:50:18;;;;;;;1.20;1.10;;;13.30;45.00;;;;;;4961161;28;45449;-58
2023/03/06 15:52:44;;;;;;;1.20;1.10;;;13.40;44.90;;;;;;4944544;28;44755;-55
2023/03/06 15:55:13;;;;;;;1.42;1.10;;;13.40;44.90;;;;;;4945415;28;44767;-58
2023/03/06 15:57:43;;;;;;;0.90;0.90;;;13.30;45.20;;;;;;4947462;28;45617;-57
2023/03/06 16:00:24;;;;;;;1.20;1.10;;;13.40;44.90;;;;;;4932663;28;45257;-58
2023/03/06 16:02:51;;;;;;;1.10;1.00;;;13.30;44.90;;;;;;4945665;28;45305;-59
2023/03/06 16:05:17;;;;;;;1.70;1.20;;;13.30;44.90;;;;;;4963740;28;45633;-53
2023/03/06 16:07:42;;;;;;;1.30;1.00;;;13.30;44.90;;;;;;4961681;28;45656;-57
2023/03/06 16:10:12;;;;;;;1.50;1.20;;;13.30;44.90;;;;;;4942684;28;45746;-56
2023/03/06 16:12:38;;;;;;;1.35;1.10;;;13.40;44.90;;;;;;4942199;28;48420;-57
2023/03/06 16:15:05;;;;;;;1.53;1.20;;;13.40;45.00;;;;;;4928397;28;47131;-56
2023/03/06 16:17:31;;;;;;;1.17;1.08;;;13.30;44.90;;;;;;4915746;28;47668;-58
2023/03/06 16:19:56;;;;;;;1.10;1.00;;;13.30;45.00;;;;;;4959214;28;45688;-56
2023/03/06 16:22:22;;;;;;;1.40;1.30;;;13.30;44.90;;;;;;4956633;28;45169;-52
2023/03/06 16:24:48;;;;;;;1.90;1.30;;;13.30;45.00;;;;;;4933440;28;45268;-54
2023/03/06 16:27:15;;;;;;;1.02;0.93;;;13.40;45.00;;;;;;4942882;28;45504;-55
2023/03/06 16:29:41;;;;;;;1.58;1.30;;;13.30;44.90;;;;;;4929442;28;45360;-54
2023/03/06 16:32:09;;;;;;;1.27;1.00;;;13.30;44.90;;;;;;4961791;28;45345;-52
2023/03/06 16:34:34;;;;;;;1.20;1.10;;;13.30;45.00;;;;;;4940479;28;45002;-57
2023/03/06 16:37:00;;;;;;;1.30;1.07;;;13.30;44.90;;;;;;4963452;28;45387;-59
2023/03/06 16:39:25;;;;;;;1.17;1.08;;;13.30;44.90;;;;;;4963667;28;45308;-56
2023/03/06 16:41:51;;;;;;;1.30;1.20;;;13.30;45.00;;;;;;4942828;28;45249;-58
2023/03/06 16:44:17;;;;;;;1.43;1.23;;;13.30;45.00;;;;;;4949547;28;45453;-58
2023/03/06 16:46:46;;;;;;;1.33;1.15;;;13.30;44.90;;;;;;4956844;28;46602;-53
2023/03/06 16:49:19;;;;;;;1.13;1.02;;;13.30;45.00;;;;;;4944040;28;45310;-57
2023/03/06 16:51:44;;;;;;;1.33;1.13;;;13.30;45.00;;;;;;4931734;28;45902;-55
2023/03/06 16:54:10;;;;;;;1.27;1.07;;;13.30;45.00;;;;;;4948412;28;45083;-55
2023/03/06 16:56:36;;;;;;;1.20;1.10;;;13.30;45.00;;;;;;4933506;28;45644;-56
2023/03/06 16:59:02;;;;;;;1.20;1.10;;;13.30;45.00;;;;;;4948101;28;45783;-56
2023/03/06 17:01:27;;;;;;;1.20;1.10;;;13.30;45.00;;;;;;4939432;28;45837;-57
2023/03/06 17:03:53;;;;;;;1.23;1.10;;;13.30;45.00;;;;;;4948697;28;45658;-53
2023/03/06 17:06:20;;;;;;;0.85;0.85;;;13.30;45.00;;;;;;4930892;28;45545;-55